createdAt,value
2023-05-18T00:00:11.636Z,100779.34
2023-05-18T00:02:41.800Z,100766.50
2023-05-18T00:05:11.761Z,100771.25
2023-05-18T00:07:41.110Z,100775.13
2023-05-18T00:10:11.630Z,100770.50
2023-05-18T00:12:40.243Z,100764.56
2023-05-18T00:15:11.500Z,100763.75
2023-05-18T00:17:40.017Z,100770.91
2023-05-18T00:20:09.805Z,100758.31
2023-05-18T00:22:39.257Z,100757.31
2023-05-18T00:25:08.090Z,100759.97
2023-05-18T00:27:36.468Z,100765.28
2023-05-18T00:30:06.356Z,100766.75
2023-05-18T00:32:36.209Z,100755.34
2023-05-18T00:35:05.267Z,100750.06
2023-05-18T00:37:33.739Z,100759.66
2023-05-18T00:40:02.225Z,100752.97
2023-05-18T00:42:30.745Z,100748.69
2023-05-18T00:44:59.159Z,100747.69
2023-05-18T00:47:27.679Z,100747.69
2023-05-18T00:49:57.486Z,100752.38
2023-05-18T00:52:26.283Z,100750.19
2023-05-18T00:54:55.867Z,100750.59
2023-05-18T00:57:24.482Z,100762.22
2023-05-18T00:59:52.901Z,100755.53
2023-05-18T01:02:21.401Z,100755.16
2023-05-18T01:04:49.905Z,100745.53
2023-05-18T01:07:23.222Z,100746.84
2023-05-18T01:09:52.201Z,100758.44
2023-05-18T01:12:34.542Z,100746.25
2023-05-18T01:15:09.859Z,100752.00
2023-05-18T01:18:04.868Z,100746.69
2023-05-18T01:20:39.170Z,100756.69
2023-05-18T01:23:44.910Z,100761.00
2023-05-18T01:26:17.427Z,100753.06
2023-05-18T01:28:48.172Z,100755.13
2023-05-18T01:31:17.172Z,100751.84
2023-05-18T01:33:45.995Z,100749.63
2023-05-18T01:36:14.660Z,100743.75
2023-05-18T01:38:44.346Z,100748.03
2023-05-18T01:41:22.485Z,100754.78
2023-05-18T01:44:02.324Z,100751.50
2023-05-18T01:46:39.351Z,100745.63
2023-05-18T01:49:15.731Z,100751.75
2023-05-18T01:51:47.520Z,100746.88
2023-05-18T01:54:20.919Z,100752.38
2023-05-18T01:56:52.629Z,100742.81
2023-05-18T01:59:22.245Z,100744.84
2023-05-18T02:01:50.687Z,100745.09
2023-05-18T02:04:28.409Z,100745.50
2023-05-18T02:06:57.381Z,100743.28
2023-05-18T02:09:25.835Z,100735.75
2023-05-18T02:11:55.638Z,100750.59
2023-05-18T02:14:26.225Z,100747.38
2023-05-18T02:16:54.749Z,100745.97
2023-05-18T02:19:25.346Z,100739.03
2023-05-18T02:21:55.218Z,100744.53
2023-05-18T02:24:24.806Z,100739.66
2023-05-18T02:26:53.259Z,100746.00
2023-05-18T02:29:23.033Z,100746.41
2023-05-18T02:31:51.691Z,100741.09
2023-05-18T02:34:21.981Z,100737.06
2023-05-18T02:36:50.414Z,100732.78
2023-05-18T02:39:19.298Z,100737.91
2023-05-18T02:41:47.683Z,100738.72
2023-05-18T02:44:16.157Z,100736.28
2023-05-18T02:46:46.049Z,100732.00
2023-05-18T02:49:14.591Z,100741.19
2023-05-18T02:51:43.855Z,100743.03
2023-05-18T02:54:13.204Z,100739.53
2023-05-18T02:56:43.363Z,100736.31
2023-05-18T02:59:33.724Z,100727.97
2023-05-18T03:02:03.538Z,100723.31
2023-05-18T03:04:32.745Z,100737.16
2023-05-18T03:07:02.812Z,100735.53
2023-05-18T03:09:31.696Z,100733.69
2023-05-18T03:12:01.248Z,100731.25
2023-05-18T03:14:30.367Z,100734.50
2023-05-18T03:16:59.336Z,100724.94
2023-05-18T03:19:29.552Z,100733.91
2023-05-18T03:21:58.963Z,100743.25
2023-05-18T03:24:30.411Z,100735.13
2023-05-18T03:27:01.094Z,100743.25
2023-05-18T03:29:31.459Z,100739.19
2023-05-18T03:32:01.530Z,100751.19
2023-05-18T03:34:31.369Z,100740.00
2023-05-18T03:37:00.113Z,100755.91
2023-05-18T03:39:28.655Z,100749.97
2023-05-18T03:41:57.065Z,100756.94
2023-05-18T03:44:25.938Z,100759.56
2023-05-18T03:46:54.752Z,100759.56
2023-05-18T03:49:23.388Z,100753.44
2023-05-18T03:51:54.851Z,100749.78
2023-05-18T03:54:24.143Z,100758.53
2023-05-18T03:56:53.278Z,100759.56
2023-05-18T03:59:21.677Z,100762.00
2023-05-18T04:01:53.949Z,100762.22
2023-05-18T04:04:27.559Z,100769.13
2023-05-18T04:06:57.829Z,100760.38
2023-05-18T04:09:28.113Z,100769.94
2023-05-18T04:11:56.629Z,100764.03
2023-05-18T04:14:28.205Z,100766.50
2023-05-18T04:16:58.398Z,100763.84
2023-05-18T04:19:28.378Z,100769.72
2023-05-18T04:22:00.019Z,100766.50
2023-05-18T04:24:28.488Z,100774.44
2023-05-18T04:26:59.431Z,100776.47
2023-05-18T04:29:29.133Z,100778.31
2023-05-18T04:32:01.123Z,100770.59
2023-05-18T04:34:31.374Z,100787.06
2023-05-18T04:37:03.233Z,100770.34
2023-05-18T04:39:32.643Z,100797.66
2023-05-18T04:42:01.665Z,100789.28
2023-05-18T04:44:34.011Z,100782.78
2023-05-18T04:47:04.452Z,100776.47
2023-05-18T04:49:33.207Z,100782.78
2023-05-18T04:52:02.992Z,100780.16
2023-05-18T04:54:31.969Z,100787.06
2023-05-18T04:57:02.223Z,100781.75
2023-05-18T04:59:30.652Z,100789.72
2023-05-18T05:01:59.059Z,100793.38
2023-05-18T05:04:27.809Z,100783.59
2023-05-18T05:06:56.298Z,100793.16
2023-05-18T05:09:26.056Z,100790.75
2023-05-18T05:11:56.345Z,100789.72
2023-05-18T05:14:25.532Z,100797.25
2023-05-18T05:16:54.803Z,100789.28
2023-05-18T05:19:23.605Z,100792.97
2023-05-18T05:21:52.258Z,100799.88
2023-05-18T05:24:20.655Z,100797.25
2023-05-18T05:26:50.512Z,100795.63
2023-05-18T05:29:19.970Z,100790.50
2023-05-18T05:31:48.410Z,100790.75
2023-05-18T05:34:16.880Z,100785.66
2023-05-18T05:36:45.504Z,100788.09
2023-05-18T05:39:13.901Z,100785.44
2023-05-18T05:41:42.304Z,100788.09
2023-05-18T05:44:12.202Z,100797.66
2023-05-18T05:46:40.765Z,100790.75
2023-05-18T05:49:11.360Z,100790.75
2023-05-18T05:51:39.891Z,100785.66
2023-05-18T05:54:10.672Z,100794.00
2023-05-18T05:56:39.694Z,100807.25
2023-05-18T05:59:08.255Z,100794.00
2023-05-18T06:01:38.128Z,100793.16
2023-05-18T06:04:10.814Z,100797.47
2023-05-18T06:06:39.606Z,100791.34
2023-05-18T06:09:09.140Z,100789.28
2023-05-18T06:11:37.991Z,100790.91
2023-05-18T06:14:06.532Z,100786.44
2023-05-18T06:16:35.406Z,100792.75
2023-05-18T06:19:05.705Z,100786.25
2023-05-18T06:21:34.167Z,100784.81
2023-05-18T06:24:05.083Z,100787.69
2023-05-18T06:26:49.423Z,100795.25
2023-05-18T06:29:38.210Z,100787.69
2023-05-18T06:32:29.645Z,100791.72
2023-05-18T06:35:00.719Z,100778.31
2023-05-18T06:37:29.198Z,100793.38
2023-05-18T06:39:57.689Z,100791.50
2023-05-18T06:42:26.595Z,100793.72
2023-05-18T06:45:04.682Z,100787.19
2023-05-18T06:48:02.400Z,100784.69
2023-05-18T06:50:34.095Z,100791.81
2023-05-18T06:53:04.466Z,100801.19
2023-05-18T06:55:33.494Z,100790.56
2023-05-18T06:58:02.734Z,100801.56
2023-05-18T07:00:31.276Z,100790.53
2023-05-18T07:02:59.755Z,100786.63
2023-05-18T07:05:30.406Z,100785.16
2023-05-18T07:08:00.422Z,100782.09
2023-05-18T07:10:29.039Z,100781.91
2023-05-18T07:12:58.102Z,100778.41
2023-05-18T07:15:26.758Z,100777.16
2023-05-18T07:17:55.246Z,100791.19
2023-05-18T07:20:26.182Z,100786.03
2023-05-18T07:22:56.142Z,100776.59
2023-05-18T07:25:26.251Z,100783.94
2023-05-18T07:27:55.680Z,100776.38
2023-05-18T07:30:26.439Z,100776.94
2023-05-18T07:32:56.574Z,100777.94
2023-05-18T07:35:26.451Z,100776.06
2023-05-18T07:37:55.300Z,100774.38
2023-05-18T07:40:25.128Z,100786.38
2023-05-18T07:42:53.954Z,100774.06
2023-05-18T07:45:23.899Z,100773.44
2023-05-18T07:47:52.426Z,100767.47
2023-05-18T07:50:21.000Z,100762.09
2023-05-18T07:52:49.423Z,100770.63
2023-05-18T07:55:18.274Z,100774.03
2023-05-18T07:57:48.018Z,100774.59
2023-05-18T08:00:18.411Z,100780.84
2023-05-18T08:02:47.372Z,100771.41
2023-05-18T08:05:15.862Z,100776.44
2023-05-18T08:07:44.204Z,100768.38
2023-05-18T08:10:12.767Z,100774.44
2023-05-18T08:12:41.140Z,100773.34
2023-05-18T08:15:12.634Z,100779.97
2023-05-18T08:17:41.214Z,100781.50
2023-05-18T08:20:11.839Z,100778.22
2023-05-18T08:22:40.354Z,100766.38
2023-05-18T08:25:10.346Z,100756.47
2023-05-18T08:27:38.834Z,100763.91
2023-05-18T08:30:08.756Z,100751.34
2023-05-18T08:32:38.577Z,100751.25
2023-05-18T08:35:10.087Z,100756.69
2023-05-18T08:37:39.719Z,100749.22
2023-05-18T08:40:11.494Z,100754.41
2023-05-18T08:42:50.852Z,100742.84
2023-05-18T08:45:27.081Z,100734.53
2023-05-18T08:47:58.465Z,100751.22
2023-05-18T08:50:28.795Z,100739.91
2023-05-18T08:53:01.895Z,100740.81
2023-05-18T08:55:34.747Z,100735.41
2023-05-18T08:58:04.901Z,100733.44
2023-05-18T09:00:34.412Z,100744.00
2023-05-18T09:03:06.461Z,100709.13
2023-05-18T09:05:35.282Z,100727.41
2023-05-18T09:08:04.511Z,100736.94
2023-05-18T09:10:34.942Z,100729.63
2023-05-18T09:13:05.445Z,100723.34
2023-05-18T09:15:35.378Z,100725.34
2023-05-18T09:18:05.492Z,100729.50
2023-05-18T09:20:34.078Z,100727.50
2023-05-18T09:23:02.506Z,100737.19
2023-05-18T09:25:35.790Z,100727.22
2023-05-18T09:28:05.164Z,100716.09
2023-05-18T09:30:42.235Z,100716.19
2023-05-18T09:33:19.164Z,100731.41
2023-05-18T09:35:48.107Z,100728.56
2023-05-18T09:38:21.952Z,100717.75
2023-05-18T09:40:51.863Z,100720.22
2023-05-18T09:43:20.818Z,100726.69
2023-05-18T09:45:50.829Z,100720.88
2023-05-18T09:48:22.161Z,100719.91
2023-05-18T09:50:52.646Z,100703.69
2023-05-18T09:53:21.010Z,100698.41
2023-05-18T09:55:51.377Z,100704.41
2023-05-18T09:58:19.945Z,100706.13
2023-05-18T10:00:52.002Z,100694.97
2023-05-18T10:03:24.695Z,100698.84
2023-05-18T10:05:53.381Z,100708.78
2023-05-18T10:08:21.797Z,100704.94
2023-05-18T10:10:52.586Z,100696.44
2023-05-18T10:13:21.079Z,100698.94
2023-05-18T10:15:53.967Z,100701.50
2023-05-18T10:18:26.739Z,100683.94
2023-05-18T10:20:59.191Z,100686.75
2023-05-18T10:23:32.504Z,100686.13
2023-05-18T10:26:01.569Z,100701.72
2023-05-18T10:28:36.160Z,100682.28
2023-05-18T10:31:07.871Z,100685.03
2023-05-18T10:33:38.971Z,100675.97
2023-05-18T10:36:08.985Z,100688.88
2023-05-18T10:38:40.633Z,100687.91
2023-05-18T10:41:11.054Z,100682.06
2023-05-18T10:43:39.632Z,100684.22
2023-05-18T10:46:08.736Z,100684.00
2023-05-18T10:48:41.265Z,100678.16
2023-05-18T10:51:10.066Z,100688.34
2023-05-18T10:53:39.427Z,100692.94
2023-05-18T10:56:09.047Z,100690.81
2023-05-18T10:58:39.952Z,100686.38
2023-05-18T11:01:11.872Z,100684.53
2023-05-18T11:03:42.148Z,100678.69
2023-05-18T11:06:14.998Z,100677.13
2023-05-18T11:08:45.564Z,100673.16
2023-05-18T11:11:15.953Z,100670.03
2023-05-18T11:13:50.073Z,100664.19
2023-05-18T11:16:20.076Z,100665.88
2023-05-18T11:18:51.461Z,100676.34
2023-05-18T11:21:51.806Z,100665.66
2023-05-18T11:24:23.824Z,100663.03
2023-05-18T11:26:53.984Z,100663.34
2023-05-18T11:29:25.845Z,100654.25
2023-05-18T11:31:55.954Z,100650.81
2023-05-18T11:34:49.533Z,100656.75
2023-05-18T11:37:19.891Z,100650.63
2023-05-18T11:40:00.640Z,100659.53
2023-05-18T11:42:35.108Z,100649.66
2023-05-18T11:45:11.198Z,100644.09
2023-05-18T11:47:41.497Z,100651.34
2023-05-18T11:50:13.080Z,100647.66
2023-05-18T11:52:49.824Z,100639.09
2023-05-18T11:55:23.499Z,100644.03
2023-05-18T11:57:53.755Z,100640.00
2023-05-18T12:00:23.197Z,100636.03
2023-05-18T12:02:52.699Z,100641.13
2023-05-18T12:05:23.182Z,100649.69
2023-05-18T12:07:54.846Z,100639.00
2023-05-18T12:10:24.398Z,100646.78
2023-05-18T12:12:54.616Z,100629.88
2023-05-18T12:15:25.204Z,100630.97
2023-05-18T12:17:53.879Z,100630.97
2023-05-18T12:20:26.732Z,100624.53
2023-05-18T12:22:57.048Z,100630.75
2023-05-18T12:25:28.145Z,100627.56
2023-05-18T12:27:57.861Z,100613.09
2023-05-18T12:30:35.072Z,100623.31
2023-05-18T12:33:04.957Z,100631.16
2023-05-18T12:35:35.380Z,100613.75
2023-05-18T12:38:04.046Z,100619.19
2023-05-18T12:40:44.469Z,100620.81
2023-05-18T12:43:14.064Z,100625.41
2023-05-18T12:45:45.466Z,100617.38
2023-05-18T12:48:15.161Z,100619.28
2023-05-18T12:50:50.667Z,100620.13
2023-05-18T12:53:19.542Z,100615.63
2023-05-18T12:55:57.646Z,100608.41
2023-05-18T12:58:26.151Z,100603.34
2023-05-18T13:00:54.649Z,100604.13
2023-05-18T13:03:24.486Z,100605.75
2023-05-18T13:06:07.659Z,100594.78
2023-05-18T13:08:37.939Z,100589.44
2023-05-18T13:11:14.273Z,100595.06
2023-05-18T13:14:02.285Z,100587.59
2023-05-18T13:16:31.596Z,100598.06
2023-05-18T13:19:02.122Z,100591.91
2023-05-18T13:21:32.068Z,100581.44
2023-05-18T13:24:00.951Z,100587.91
2023-05-18T13:26:29.534Z,100581.75
2023-05-18T13:29:00.254Z,100586.84
2023-05-18T13:31:29.841Z,100579.06
2023-05-18T13:33:58.372Z,100576.38
2023-05-18T13:36:29.720Z,100585.75
2023-05-18T13:38:59.640Z,100577.19
2023-05-18T13:41:28.417Z,100577.44
2023-05-18T13:43:56.876Z,100576.09
2023-05-18T13:46:25.688Z,100576.94
2023-05-18T13:48:54.243Z,100576.41
2023-05-18T13:51:22.896Z,100560.31
2023-05-18T13:53:51.372Z,100560.59
2023-05-18T13:56:21.340Z,100544.78
2023-05-18T13:58:50.161Z,100554.16
2023-05-18T14:01:19.078Z,100544.25
2023-05-18T14:03:47.716Z,100541.28
2023-05-18T14:06:16.251Z,100543.97
2023-05-18T14:08:44.722Z,100541.84
2023-05-18T14:11:13.117Z,100542.66
2023-05-18T14:13:42.831Z,100541.31
2023-05-18T14:16:11.253Z,100538.91
2023-05-18T14:18:39.697Z,100549.63
2023-05-18T14:21:08.109Z,100542.94
2023-05-18T14:23:36.506Z,100537.84
2023-05-18T14:26:04.940Z,100527.94
2023-05-18T14:28:33.334Z,100529.00
2023-05-18T14:31:03.082Z,100519.03
2023-05-18T14:33:31.489Z,100520.09
2023-05-18T14:36:00.792Z,100525.75
2023-05-18T14:38:29.139Z,100514.75
2023-05-18T14:40:57.452Z,100515.25
2023-05-18T14:43:25.801Z,100519.59
2023-05-18T14:46:07.488Z,100530.03
2023-05-18T14:48:38.591Z,100518.50
2023-05-18T14:51:07.049Z,100509.34
2023-05-18T14:53:35.457Z,100509.09
2023-05-18T14:56:06.222Z,100520.63
2023-05-18T14:58:34.636Z,100504.78
2023-05-18T15:01:03.415Z,100507.19
2023-05-18T15:03:31.875Z,100495.09
2023-05-18T15:06:01.837Z,100504.78
2023-05-18T15:08:30.194Z,100498.59
2023-05-18T15:10:58.648Z,100501.78
2023-05-18T15:13:27.032Z,100509.31
2023-05-18T15:15:55.676Z,100504.47
2023-05-18T15:18:24.108Z,100513.06
2023-05-18T15:20:52.501Z,100497.47
2023-05-18T15:23:22.229Z,100497.47
2023-05-18T15:25:52.510Z,100499.06
2023-05-18T15:28:20.858Z,100489.66
2023-05-18T15:30:49.192Z,100495.81
2023-05-18T15:33:17.550Z,100498.50
2023-05-18T15:35:45.926Z,100486.72
2023-05-18T15:38:14.281Z,100497.97
2023-05-18T15:40:46.794Z,100496.09
2023-05-18T15:43:15.278Z,100493.94
2023-05-18T15:45:43.782Z,100490.97
2023-05-18T15:48:12.212Z,100482.91
2023-05-18T15:50:40.670Z,100489.91
2023-05-18T15:53:09.024Z,100492.00
2023-05-18T15:55:37.353Z,100492.31
2023-05-18T15:58:07.103Z,100485.34
2023-05-18T16:00:35.513Z,100482.66
2023-05-18T16:03:04.008Z,100491.22
2023-05-18T16:05:32.423Z,100485.34
2023-05-18T16:08:00.880Z,100478.63
2023-05-18T16:10:29.829Z,100467.91
2023-05-18T16:13:04.207Z,100472.44
2023-05-18T16:15:35.160Z,100474.63
2023-05-18T16:18:04.118Z,100480.00
2023-05-18T16:20:32.707Z,100482.38
2023-05-18T16:23:01.273Z,100477.34
2023-05-18T16:25:29.863Z,100482.94
2023-05-18T16:27:58.317Z,100486.19
2023-05-18T16:30:26.860Z,100481.91
2023-05-18T16:32:56.594Z,100485.41
2023-05-18T16:35:25.018Z,100482.72
2023-05-18T16:37:53.374Z,100486.72
2023-05-18T16:40:21.874Z,100487.75
2023-05-18T16:42:50.197Z,100492.84
2023-05-18T16:45:18.618Z,100490.16
2023-05-18T16:47:47.026Z,100492.56
2023-05-18T16:50:16.848Z,100482.31
2023-05-18T16:52:45.229Z,100498.41
2023-05-18T16:55:13.654Z,100505.34
2023-05-18T16:57:43.407Z,100503.19
2023-05-18T17:00:13.492Z,100508.00
2023-05-18T17:02:42.079Z,100501.28
2023-05-18T17:05:11.392Z,100503.72
2023-05-18T17:07:41.125Z,100510.97
2023-05-18T17:10:19.611Z,100508.03
2023-05-18T17:12:48.112Z,100503.22
2023-05-18T17:15:16.527Z,100498.66
2023-05-18T17:17:45.627Z,100501.84
2023-05-18T17:20:14.131Z,100508.03
2023-05-18T17:22:43.932Z,100507.50
2023-05-18T17:25:12.526Z,100516.09
2023-05-18T17:27:40.911Z,100509.91
2023-05-18T17:30:11.638Z,100497.84
2023-05-18T17:32:40.268Z,100513.41
2023-05-18T17:35:11.199Z,100499.97
2023-05-18T17:37:41.413Z,100503.19
2023-05-18T17:40:12.877Z,100498.34
2023-05-18T17:42:41.321Z,100502.13
2023-05-18T17:45:11.466Z,100506.16
2023-05-18T17:47:41.769Z,100504.84
2023-05-18T17:50:13.386Z,100506.47
2023-05-18T17:52:41.998Z,100505.41
2023-05-18T17:55:11.865Z,100498.19
2023-05-18T17:57:45.203Z,100499.28
2023-05-18T18:00:16.086Z,100499.03
2023-05-18T18:02:44.482Z,100501.75
2023-05-18T18:05:13.080Z,100505.50
2023-05-18T18:07:41.490Z,100514.13
2023-05-18T18:10:12.475Z,100504.19
2023-05-18T18:12:40.961Z,100513.63
2023-05-18T18:15:11.361Z,100516.84
2023-05-18T18:17:39.803Z,100507.16
2023-05-18T18:20:10.454Z,100513.09
2023-05-18T18:22:39.001Z,100511.50
2023-05-18T18:25:07.976Z,100513.91
2023-05-18T18:27:37.756Z,100519.31
2023-05-18T18:30:07.625Z,100518.50
2023-05-18T18:32:36.043Z,100520.09
2023-05-18T18:35:04.731Z,100522.28
2023-05-18T18:37:33.237Z,100523.34
2023-05-18T18:40:01.570Z,100535.19
2023-05-18T18:42:29.939Z,100536.25
2023-05-18T18:44:59.758Z,100524.69
2023-05-18T18:47:28.228Z,100535.16
2023-05-18T18:49:56.671Z,100534.31
2023-05-18T18:52:25.085Z,100540.75
2023-05-18T18:54:53.883Z,100529.50
2023-05-18T18:57:22.623Z,100538.03
2023-05-18T18:59:51.781Z,100544.47
2023-05-18T19:02:22.543Z,100550.38
2023-05-18T19:04:50.993Z,100553.03
2023-05-18T19:07:19.444Z,100557.81
2023-05-18T19:09:49.536Z,100551.09
2023-05-18T19:12:17.997Z,100560.19
2023-05-18T19:14:46.405Z,100556.16
2023-05-18T19:17:14.799Z,100557.44
2023-05-18T19:19:44.601Z,100554.97
2023-05-18T19:22:14.426Z,100565.41
2023-05-18T19:24:43.070Z,100557.59
2023-05-18T19:27:11.427Z,100575.78
2023-05-18T19:29:39.797Z,100580.56
2023-05-18T19:32:08.696Z,100573.53
2023-05-18T19:34:37.344Z,100581.84
2023-05-18T19:37:07.192Z,100587.41
2023-05-18T19:39:35.601Z,100582.84
2023-05-18T19:42:04.665Z,100583.81
2023-05-18T19:44:33.151Z,100591.28
2023-05-18T19:47:01.487Z,100609.97
2023-05-18T19:49:31.308Z,100594.38
2023-05-18T19:51:59.668Z,100591.91
2023-05-18T19:54:29.417Z,100598.03
2023-05-18T19:56:57.827Z,100602.53
2023-05-18T19:59:26.378Z,100600.06
2023-05-18T20:01:56.473Z,100610.47
2023-05-18T20:04:25.233Z,100601.03
2023-05-18T20:06:54.009Z,100603.09
2023-05-18T20:09:23.160Z,100610.25
2023-05-18T20:11:54.420Z,100617.44
2023-05-18T20:14:23.073Z,100617.63
2023-05-18T20:16:52.633Z,100612.47
2023-05-18T20:19:22.179Z,100618.00
2023-05-18T20:21:50.744Z,100620.38
2023-05-18T20:24:19.098Z,100609.59
2023-05-18T20:26:47.467Z,100614.88
2023-05-18T20:29:17.171Z,100604.38
2023-05-18T20:31:45.721Z,100624.16
2023-05-18T20:34:14.102Z,100625.16
2023-05-18T20:36:42.528Z,100627.75
2023-05-18T20:39:10.909Z,100611.66
2023-05-18T20:41:40.213Z,100631.34
2023-05-18T20:44:11.264Z,100632.09
2023-05-18T20:46:42.708Z,100623.47
2023-05-18T20:49:13.111Z,100629.03
2023-05-18T20:51:41.561Z,100639.91
2023-05-18T20:54:10.055Z,100634.81
2023-05-18T20:56:38.474Z,100626.97
2023-05-18T20:59:06.932Z,100634.44
2023-05-18T21:01:39.247Z,100626.59
2023-05-18T21:04:12.027Z,100635.88
2023-05-18T21:06:43.606Z,100637.44
2023-05-18T21:09:12.154Z,100638.72
2023-05-18T21:11:41.286Z,100621.72
2023-05-18T21:14:09.772Z,100633.75
2023-05-18T21:16:38.253Z,100644.13
2023-05-18T21:19:08.026Z,100632.56
2023-05-18T21:21:36.851Z,100630.59
2023-05-18T21:24:05.615Z,100649.78
2023-05-18T21:26:34.336Z,100626.16
2023-05-18T21:29:02.815Z,100638.97
2023-05-18T21:31:31.273Z,100617.84
2023-05-18T21:33:59.821Z,100639.34
2023-05-18T21:36:36.488Z,100636.34
2023-05-18T21:39:09.060Z,100624.00
2023-05-18T21:41:40.283Z,100625.28
2023-05-18T21:44:08.690Z,100627.88
2023-05-18T21:46:38.082Z,100631.81
2023-05-18T21:49:08.439Z,100632.78
2023-05-18T21:51:38.279Z,100626.56
2023-05-18T21:54:06.821Z,100637.22
2023-05-18T21:56:36.905Z,100635.50
2023-05-18T21:59:05.467Z,100635.63
2023-05-18T22:01:34.252Z,100634.84
2023-05-18T22:04:02.751Z,100636.13
2023-05-18T22:06:31.341Z,100651.75
2023-05-18T22:09:01.221Z,100641.56
2023-05-18T22:11:29.658Z,100637.75
2023-05-18T22:13:58.018Z,100636.94
2023-05-18T22:16:26.691Z,100631.06
2023-05-18T22:18:55.254Z,100640.91
2023-05-18T22:21:23.730Z,100640.59
2023-05-18T22:23:52.255Z,100639.19
2023-05-18T22:26:22.338Z,100650.06
2023-05-18T22:28:50.997Z,100634.59
2023-05-18T22:31:19.478Z,100634.25
2023-05-18T22:33:47.847Z,100631.47
2023-05-18T22:36:18.099Z,100626.38
2023-05-18T22:38:46.580Z,100636.47
2023-05-18T22:41:15.004Z,100628.94
2023-05-18T22:43:44.715Z,100624.91
2023-05-18T22:46:13.347Z,100624.56
2023-05-18T22:48:41.863Z,100630.13
2023-05-18T22:51:10.309Z,100631.16
2023-05-18T22:53:38.829Z,100633.84
2023-05-18T22:56:07.960Z,100632.22
2023-05-18T22:58:36.354Z,100631.63
2023-05-18T23:01:06.119Z,100630.84
2023-05-18T23:03:34.557Z,100627.38
2023-05-18T23:06:03.406Z,100627.59
2023-05-18T23:08:32.114Z,100620.09
2023-05-18T23:11:01.797Z,100621.38
2023-05-18T23:13:32.965Z,100608.50
2023-05-18T23:16:01.877Z,100619.41
2023-05-18T23:18:31.617Z,100616.97
2023-05-18T23:21:00.047Z,100624.97
2023-05-18T23:23:28.387Z,100612.44
2023-05-18T23:25:56.781Z,100626.56
2023-05-18T23:28:25.177Z,100610.59
2023-05-18T23:30:53.516Z,100610.84
2023-05-18T23:33:22.654Z,100611.63
2023-05-18T23:35:53.438Z,100618.72
2023-05-18T23:38:28.793Z,100614.78
2023-05-18T23:40:58.010Z,100615.81
2023-05-18T23:43:27.067Z,100610.50
2023-05-18T23:45:56.283Z,100611.56
2023-05-18T23:48:25.366Z,100610.63
2023-05-18T23:50:59.862Z,100611.44
2023-05-18T23:53:30.301Z,100608.66
2023-05-18T23:56:00.098Z,100614.81
2023-05-18T23:58:31.698Z,100597.94
